createdAt,value
2022-10-05T00:02:52.735Z,3.55
2022-10-05T00:07:57.873Z,3.45
2022-10-05T00:12:59.703Z,4.22
2022-10-05T00:18:03.187Z,3.40
2022-10-05T00:23:10.992Z,3.40
2022-10-05T00:28:34.613Z,3.33
2022-10-05T00:33:36.476Z,3.20
2022-10-05T00:38:38.384Z,3.45
2022-10-05T00:44:19.774Z,3.47
2022-10-05T00:49:24.517Z,3.30
2022-10-05T00:54:54.716Z,3.15
2022-10-05T01:05:29.925Z,3.40
2022-10-05T01:10:43.993Z,3.90
2022-10-05T01:15:51.887Z,3.95
2022-10-05T01:21:24.651Z,3.92
2022-10-05T01:27:01.918Z,2.88
2022-10-05T01:32:30.327Z,3.15
2022-10-05T01:37:45.933Z,2.72
2022-10-05T01:43:18.968Z,2.88
2022-10-05T01:48:57.070Z,2.55
2022-10-05T01:54:02.033Z,2.78
2022-10-05T01:59:20.355Z,3.30
2022-10-05T02:05:01.107Z,3.22
2022-10-05T02:10:05.341Z,2.53
2022-10-05T02:15:23.338Z,2.45
2022-10-05T02:20:30.523Z,2.60
2022-10-05T02:25:38.873Z,2.17
2022-10-05T02:30:50.433Z,3.03
2022-10-05T02:35:53.049Z,2.08
2022-10-05T02:41:28.649Z,2.60
2022-10-05T02:47:05.570Z,2.47
2022-10-05T02:52:18.728Z,2.22
2022-10-05T02:57:42.755Z,2.30
2022-10-05T03:02:59.379Z,2.20
2022-10-05T03:08:20.138Z,2.38
2022-10-05T03:13:45.632Z,3.45
2022-10-05T03:19:06.957Z,2.67
2022-10-05T03:24:27.334Z,2.40
2022-10-05T03:29:50.831Z,2.70
2022-10-05T03:35:14.180Z,1.92
2022-10-05T03:40:36.739Z,2.50
2022-10-05T03:45:45.195Z,3.00
2022-10-05T03:50:55.765Z,2.30
2022-10-05T03:56:14.825Z,2.35
2022-10-05T04:01:22.730Z,3.20
2022-10-05T04:06:42.122Z,3.00
2022-10-05T04:11:51.021Z,2.88
2022-10-05T04:17:21.785Z,2.88
2022-10-05T04:22:33.751Z,2.87
2022-10-05T04:27:48.997Z,3.00
2022-10-05T04:32:54.921Z,3.03
2022-10-05T04:38:33.498Z,3.20
2022-10-05T04:44:00.240Z,2.97
2022-10-05T04:49:20.457Z,3.20
2022-10-05T04:54:52.784Z,2.78
2022-10-05T05:00:05.828Z,2.88
2022-10-05T05:05:28.602Z,3.10
2022-10-05T05:10:40.909Z,3.10
2022-10-05T05:21:38.044Z,3.28
2022-10-05T05:27:11.740Z,3.20
2022-10-05T05:32:41.834Z,3.70
2022-10-05T05:37:58.654Z,3.72
2022-10-05T05:43:07.295Z,3.30
2022-10-05T05:48:19.191Z,3.95
2022-10-05T05:53:28.489Z,3.60
2022-10-05T05:58:45.847Z,4.07
2022-10-05T06:04:02.850Z,3.03
2022-10-05T06:09:14.475Z,3.50
2022-10-05T06:14:44.951Z,3.50
2022-10-05T06:19:49.059Z,3.80
2022-10-05T06:25:12.697Z,4.00
2022-10-05T06:30:18.475Z,4.40
2022-10-05T06:36:06.602Z,3.75
2022-10-05T06:41:21.265Z,3.40
2022-10-05T06:46:38.848Z,3.45
2022-10-05T06:51:58.381Z,4.75
2022-10-05T06:57:19.472Z,4.47
2022-10-05T07:02:32.518Z,4.10
2022-10-05T07:07:53.751Z,3.20
2022-10-05T07:13:08.152Z,4.22
2022-10-05T07:18:48.387Z,3.95
2022-10-05T07:24:09.204Z,3.70
2022-10-05T07:29:22.831Z,3.88
2022-10-05T07:35:04.541Z,3.83
2022-10-05T07:40:12.165Z,3.80
2022-10-05T07:45:17.154Z,3.53
2022-10-05T07:50:23.309Z,3.42
2022-10-05T07:55:45.179Z,3.38
2022-10-05T08:01:01.990Z,3.42
2022-10-05T08:06:10.339Z,3.95
2022-10-05T08:11:12.547Z,4.18
2022-10-05T08:16:16.867Z,3.63
2022-10-05T08:21:36.496Z,3.30
2022-10-05T08:27:00.028Z,2.70
2022-10-05T08:32:06.787Z,2.92
2022-10-05T08:37:18.819Z,3.72
2022-10-05T08:42:26.579Z,3.60
2022-10-05T08:47:37.686Z,3.70
2022-10-05T08:53:04.552Z,4.78
2022-10-05T08:58:52.739Z,5.35
2022-10-05T09:04:19.463Z,4.28
2022-10-05T09:09:47.493Z,4.82
2022-10-05T09:15:25.530Z,5.30
2022-10-05T09:21:02.949Z,3.58
2022-10-05T09:26:23.281Z,3.50
2022-10-05T09:31:53.457Z,3.17
2022-10-05T09:37:26.530Z,2.85
2022-10-05T09:42:40.603Z,1.98
2022-10-05T09:48:03.691Z,2.00
2022-10-05T09:53:24.422Z,1.67
2022-10-05T09:58:49.603Z,1.60
2022-10-05T10:04:10.309Z,2.10
2022-10-05T10:09:38.816Z,2.10
2022-10-05T10:15:18.319Z,2.00
2022-10-05T10:20:23.233Z,2.08
2022-10-05T10:25:31.853Z,1.73
2022-10-05T10:30:58.713Z,1.95
2022-10-05T10:36:32.911Z,1.90
2022-10-05T10:41:53.386Z,2.10
2022-10-05T10:47:18.320Z,1.60
2022-10-05T10:53:03.709Z,1.77
2022-10-05T10:58:38.406Z,1.55
2022-10-05T11:04:23.228Z,2.15
2022-10-05T11:09:38.282Z,2.00
2022-10-05T11:14:49.856Z,1.73
2022-10-05T11:20:35.291Z,1.60
2022-10-05T11:25:50.439Z,1.52
2022-10-05T11:31:26.288Z,1.60
2022-10-05T11:36:56.816Z,1.83
2022-10-05T11:42:13.385Z,1.70
2022-10-05T11:47:37.335Z,1.52
2022-10-05T11:52:47.061Z,2.00
2022-10-05T11:57:51.848Z,2.65
2022-10-05T12:03:23.686Z,2.03
2022-10-05T12:08:36.876Z,1.70
2022-10-05T12:14:01.528Z,2.05
2022-10-05T12:19:13.615Z,1.70
2022-10-05T12:24:27.152Z,1.70
2022-10-05T12:29:52.531Z,1.77
2022-10-05T12:35:04.744Z,2.30
2022-10-05T12:40:18.879Z,2.15
2022-10-05T12:45:37.665Z,1.90
2022-10-05T12:50:43.384Z,1.73
2022-10-05T12:56:04.158Z,1.83
2022-10-05T13:01:14.957Z,1.90
2022-10-05T13:06:33.694Z,1.60
2022-10-05T13:11:58.777Z,1.70
2022-10-05T13:17:12.544Z,2.00
2022-10-05T13:22:42.593Z,1.92
2022-10-05T13:27:52.609Z,2.20
2022-10-05T13:33:18.127Z,1.90
2022-10-05T13:38:43.080Z,1.70
2022-10-05T13:44:20.094Z,2.30
2022-10-05T13:49:31.997Z,1.30
2022-10-05T13:54:51.001Z,1.70
2022-10-05T14:00:01.561Z,1.60
2022-10-05T14:05:32.042Z,1.90
2022-10-05T14:10:39.979Z,1.70
2022-10-05T14:15:42.473Z,1.77
2022-10-05T14:21:18.267Z,1.85
2022-10-05T14:26:25.979Z,1.60
2022-10-05T14:31:37.001Z,1.73
2022-10-05T14:36:44.078Z,1.50
2022-10-05T14:41:49.191Z,1.70
2022-10-05T14:46:58.930Z,2.50
2022-10-05T14:52:21.849Z,2.10
2022-10-05T14:57:45.906Z,1.30
2022-10-05T15:03:22.829Z,1.40
2022-10-05T15:08:42.643Z,1.75
2022-10-05T15:13:48.675Z,1.70
2022-10-05T15:18:59.797Z,1.40
2022-10-05T15:24:41.267Z,1.55
2022-10-05T15:29:59.975Z,1.63
2022-10-05T15:35:24.471Z,1.35
2022-10-05T15:40:44.050Z,1.30
2022-10-05T15:46:04.271Z,1.60
2022-10-05T15:51:24.734Z,1.73
2022-10-05T15:56:34.309Z,1.13
2022-10-05T16:01:49.694Z,1.80
2022-10-05T16:07:19.692Z,1.30
2022-10-05T16:12:40.244Z,1.55
2022-10-05T16:18:01.537Z,1.97
2022-10-05T16:23:31.152Z,1.73
2022-10-05T16:28:53.018Z,1.05
2022-10-05T16:34:17.333Z,1.40
2022-10-05T16:39:44.930Z,1.27
2022-10-05T16:45:09.874Z,1.40
2022-10-05T16:50:20.983Z,1.67
2022-10-05T16:55:38.924Z,1.30
2022-10-05T17:01:16.430Z,1.30
2022-10-05T17:06:32.255Z,1.50
2022-10-05T17:11:34.288Z,1.13
2022-10-05T17:16:54.826Z,1.40
2022-10-05T17:22:15.594Z,1.67
2022-10-05T17:27:29.393Z,1.23
2022-10-05T17:32:36.871Z,1.85
2022-10-05T17:37:41.732Z,1.30
2022-10-05T17:42:43.730Z,1.23
2022-10-05T17:47:58.848Z,1.25
2022-10-05T17:53:40.844Z,1.17
2022-10-05T17:59:04.816Z,1.23
2022-10-05T18:04:12.462Z,1.00
2022-10-05T18:09:17.025Z,1.20
2022-10-05T18:14:27.130Z,1.38
2022-10-05T18:19:32.568Z,1.80
2022-10-05T18:25:15.920Z,1.80
2022-10-05T18:30:21.863Z,2.55
2022-10-05T18:35:46.889Z,1.70
2022-10-05T18:41:10.331Z,1.70
2022-10-05T18:46:15.182Z,1.88
2022-10-05T18:51:54.100Z,1.48
2022-10-05T18:56:55.989Z,1.90
2022-10-05T19:02:23.416Z,2.13
2022-10-05T19:07:46.168Z,1.95
2022-10-05T19:13:06.636Z,1.20
2022-10-05T19:18:23.941Z,1.73
2022-10-05T19:23:42.473Z,1.48
2022-10-05T19:28:44.394Z,1.98
2022-10-05T19:34:30.621Z,2.30
2022-10-05T19:39:58.814Z,2.90
2022-10-05T19:45:21.495Z,2.10
2022-10-05T19:50:23.465Z,2.50
2022-10-05T19:55:31.910Z,2.45
2022-10-05T20:00:35.474Z,1.95
2022-10-05T20:05:37.737Z,1.92
2022-10-05T20:10:39.864Z,2.47
2022-10-05T20:16:36.152Z,1.70
2022-10-05T20:21:47.562Z,1.67
2022-10-05T20:27:09.528Z,1.50
2022-10-05T20:32:18.079Z,2.00
2022-10-05T20:37:20.205Z,2.42
2022-10-05T20:42:24.021Z,2.60
2022-10-05T20:47:26.801Z,3.72
2022-10-05T20:52:29.446Z,2.85
2022-10-05T20:57:45.466Z,2.40
2022-10-05T21:03:18.722Z,3.15
2022-10-05T21:08:20.623Z,2.60
2022-10-05T21:17:09.613Z,2.97
2022-10-05T21:22:12.128Z,2.83
2022-10-05T21:27:26.188Z,2.53
2022-10-05T21:32:28.351Z,2.75
2022-10-05T21:37:30.242Z,2.83
2022-10-05T21:42:32.359Z,3.65
2022-10-05T21:47:34.742Z,3.10
2022-10-05T21:52:36.888Z,3.00
2022-10-05T21:57:39.116Z,3.17
2022-10-05T22:02:41.011Z,3.70
2022-10-05T22:07:42.922Z,3.42
2022-10-05T22:12:46.923Z,3.20
2022-10-05T22:17:48.793Z,3.22
2022-10-05T22:22:53.841Z,3.45
2022-10-05T22:27:55.885Z,3.60
2022-10-05T22:32:57.762Z,3.70
2022-10-05T22:38:03.438Z,3.40
2022-10-05T22:43:05.517Z,9.23
2022-10-05T22:48:07.549Z,5.90
2022-10-05T22:53:15.081Z,4.00
2022-10-05T22:58:18.022Z,2.95
2022-10-05T23:03:22.328Z,3.30
2022-10-05T23:08:24.543Z,2.67
2022-10-05T23:13:26.647Z,2.85
2022-10-05T23:18:29.088Z,2.95
2022-10-05T23:23:38.538Z,2.50
2022-10-05T23:28:46.405Z,2.85
2022-10-05T23:33:48.730Z,2.65
2022-10-05T23:38:51.427Z,2.67
2022-10-05T23:43:59.884Z,2.85
2022-10-05T23:49:01.782Z,3.17
2022-10-05T23:54:07.202Z,3.33
2022-10-05T23:59:09.399Z,3.08
